Time;durP1;ratioP1;P1;durP2;ratioP2;P2;SDS_P1;SDS_P2;PMS_P1;PMS_P2;Temp;Humidity;BMP_temperature;BMP_pressure;BME280_temperature;BME280_humidity;BME280_pressure;Samples;Min_cycle;Max_cycle;Signal;HPM_P1;HPM_P2
2021/04/09 00:01:26;;;;;;;6.55;1.92;;;;;;;10.65;58.81;100184.56;4360539;32;20102;-73
2021/04/09 00:03:54;;;;;;;10.00;1.48;;;;;;;10.72;58.74;100184.31;4358652;32;20075;-73
2021/04/09 00:06:20;;;;;;;6.70;1.42;;;;;;;10.60;59.04;100179.50;4359110;32;20083;-73
2021/04/09 00:08:46;;;;;;;6.62;1.50;;;;;;;10.61;59.01;100172.66;4363492;32;20090;-74
2021/04/09 00:11:13;;;;;;;11.82;1.30;;;;;;;10.62;59.38;100180.63;4360105;32;20085;-73
2021/04/09 00:13:39;;;;;;;5.55;1.33;;;;;;;10.58;59.77;100182.00;4359633;32;20047;-73
2021/04/09 00:16:05;;;;;;;10.07;1.30;;;;;;;10.54;59.70;100173.66;4358540;32;20031;-73
2021/04/09 00:18:31;;;;;;;9.82;1.87;;;;;;;10.57;60.19;100186.03;4359730;32;20067;-73
2021/04/09 00:20:57;;;;;;;13.18;1.77;;;;;;;10.47;61.00;100178.72;4364302;32;20109;-73
2021/04/09 00:23:23;;;;;;;6.75;1.50;;;;;;;10.44;61.08;100183.25;4361820;32;20106;-73
2021/04/09 00:25:48;;;;;;;9.95;1.50;;;;;;;10.44;61.14;100183.25;4356812;32;20042;-73
2021/04/09 00:28:14;;;;;;;18.52;2.60;;;;;;;10.49;61.29;100174.22;4360595;32;20099;-73
2021/04/09 00:30:40;;;;;;;13.70;1.30;;;;;;;10.60;60.85;100177.47;4360956;32;20324;-72
2021/04/09 00:33:06;;;;;;;4.05;1.98;;;;;;;10.54;60.72;100175.69;4361180;32;20071;-72
2021/04/09 00:35:32;;;;;;;7.47;1.52;;;;;;;10.56;60.43;100167.59;4360833;32;20093;-74
2021/04/09 00:37:58;;;;;;;7.87;1.70;;;;;;;10.68;60.34;100167.53;4363015;32;20416;-75
2021/04/09 00:40:24;;;;;;;8.93;1.37;;;;;;;10.69;59.94;100159.91;4359902;32;20097;-75
2021/04/09 00:42:50;;;;;;;9.20;1.65;;;;;;;10.54;60.38;100165.22;4358584;32;20138;-72
2021/04/09 00:45:16;;;;;;;9.15;1.20;;;;;;;10.65;60.12;100164.88;4359062;32;20811;-73
2021/04/09 00:47:43;;;;;;;8.60;1.48;;;;;;;10.70;59.72;100162.25;4361321;32;20035;-73
2021/04/09 00:50:11;;;;;;;6.50;1.48;;;;;;;10.74;59.77;100159.34;4361001;32;20043;-73
2021/04/09 00:52:39;;;;;;;5.22;1.15;;;;;;;10.72;59.88;100156.19;4361148;32;20027;-73
2021/04/09 00:55:07;;;;;;;7.07;1.60;;;;;;;10.59;60.04;100152.63;4358438;32;20045;-72
2021/04/09 00:57:33;;;;;;;13.45;1.62;;;;;;;10.69;60.00;100152.25;4360282;32;20569;-73
2021/04/09 01:00:03;;;;;;;9.50;1.70;;;;;;;10.63;60.04;100147.62;4346006;32;21025;-75
2021/04/09 01:02:29;;;;;;;10.15;1.75;;;;;;;10.53;60.46;100152.41;4357472;32;20113;-74
2021/04/09 01:04:55;;;;;;;5.90;1.87;;;;;;;10.63;60.16;100151.25;4360184;32;20062;-73
2021/04/09 01:07:21;;;;;;;11.23;1.83;;;;;;;10.66;60.11;100144.72;4362289;32;20074;-73
2021/04/09 01:09:47;;;;;;;7.60;1.85;;;;;;;10.67;59.95;100146.28;4359778;32;20071;-73
2021/04/09 01:12:13;;;;;;;10.93;1.60;;;;;;;10.80;59.61;100154.72;4364097;32;20354;-75
2021/04/09 01:14:39;;;;;;;21.42;1.83;;;;;;;10.85;59.52;100140.03;4361768;32;20047;-74
2021/04/09 01:22:18;;;;;;;6.47;1.27;;;;;;;11.51;58.19;100154.53;3984206;32;15022476;-73
2021/04/09 01:25:08;;;;;;;8.98;1.35;;;;;;;11.51;58.19;100154.53;4437790;32;20112;-75
2021/04/09 01:30:52;;;;;;;11.48;1.85;;;;;;;11.57;57.71;100151.75;3984238;32;15022018;-74
2021/04/09 01:33:19;;;;;;;10.68;1.77;;;;;;;11.57;57.71;100149.88;4440726;32;20465;-73
2021/04/09 01:35:48;;;;;;;12.52;2.15;;;;;;;11.01;59.13;100145.50;4441451;32;20083;-73
2021/04/09 01:38:18;;;;;;;10.10;2.00;;;;;;;11.01;59.07;100139.88;4444240;32;20061;-73
2021/04/09 01:40:46;;;;;;;8.00;2.30;;;;;;;10.99;58.79;100134.72;4440650;32;20091;-73
2021/04/09 01:43:16;;;;;;;10.88;2.20;;;;;;;10.86;59.45;100133.97;4440232;32;20098;-74
2021/04/09 01:45:43;;;;;;;6.55;1.60;;;;;;;10.85;59.74;100135.22;4439201;32;20377;-73
2021/04/09 01:48:11;;;;;;;13.40;2.37;;;;;;;10.82;59.61;100135.31;4440208;32;20073;-73
2021/04/09 01:50:38;;;;;;;8.07;1.70;;;;;;;10.87;60.16;100131.94;4441868;32;20042;-74
2021/04/09 01:53:06;;;;;;;6.70;1.75;;;;;;;10.97;59.68;100125.94;4440132;32;20063;-73
2021/04/09 01:55:38;;;;;;;7.90;1.95;;;;;;;10.93;60.00;100119.66;4437267;32;20156;-75
2021/04/09 01:58:04;;;;;;;6.07;1.80;;;;;;;10.86;60.38;100125.50;4440046;32;20051;-74
2021/04/09 02:00:32;;;;;;;5.53;2.05;;;;;;;10.77;60.68;100133.09;4438568;32;20056;-74
2021/04/09 02:02:59;;;;;;;8.35;2.25;;;;;;;10.73;61.53;100135.22;4425726;32;20086;-74
2021/04/09 02:05:27;;;;;;;8.50;2.55;;;;;;;10.83;61.69;100126.44;4424208;32;20078;-75
2021/04/09 02:07:56;;;;;;;11.23;2.65;;;;;;;10.73;62.72;100138.84;4424504;32;20080;-74
2021/04/09 02:10:23;;;;;;;6.68;2.20;;;;;;;10.59;63.75;100150.59;4423390;32;20033;-74
2021/04/09 02:12:49;;;;;;;4.35;1.27;;;;;;;10.26;64.89;100163.34;4425273;32;20029;-74
2021/04/09 02:15:18;;;;;;;3.80;0.80;;;;;;;9.91;65.58;100167.19;4424820;32;20101;-75
2021/04/09 02:17:44;;;;;;;5.62;0.60;;;;;;;9.71;66.90;100164.59;4425300;32;20100;-74
2021/04/09 02:20:13;;;;;;;2.80;0.98;;;;;;;9.51;67.58;100180.06;4425695;32;20108;-75
2021/04/09 02:22:39;;;;;;;3.58;0.75;;;;;;;9.36;68.10;100162.03;4423913;32;20034;-75
2021/04/09 02:25:06;;;;;;;1.77;0.20;;;;;;;9.21;68.43;100172.84;4423775;32;20091;-75
2021/04/09 02:27:33;;;;;;;4.35;0.50;;;;;;;8.99;69.24;100159.88;4422849;32;20470;-75
2021/04/09 02:29:59;;;;;;;3.42;0.47;;;;;;;8.94;69.44;100161.19;4424633;32;20052;-74
2021/04/09 02:32:25;;;;;;;5.87;0.70;;;;;;;8.99;69.16;100168.28;4424810;32;20067;-75
2021/04/09 02:34:51;;;;;;;4.00;1.25;;;;;;;8.94;68.76;100171.63;4423758;32;20073;-75
2021/04/09 02:37:19;;;;;;;2.92;0.60;;;;;;;8.85;68.52;100174.25;4425357;32;20060;-75
2021/04/09 02:39:49;;;;;;;4.50;0.82;;;;;;;8.84;68.83;100169.88;4423654;32;20074;-75
2021/04/09 02:42:16;;;;;;;3.15;0.62;;;;;;;8.79;69.20;100171.19;4410249;32;20097;-74
2021/04/09 02:44:42;;;;;;;3.20;0.95;;;;;;;8.78;70.59;100183.66;4412873;32;20039;-74
2021/04/09 02:47:14;;;;;;;3.00;0.60;;;;;;;8.78;70.56;100168.84;4413092;32;20026;-74
2021/04/09 02:49:42;;;;;;;5.90;0.93;;;;;;;8.86;71.11;100167.41;4413492;32;20061;-74
2021/04/09 02:52:18;;;;;;;2.08;0.75;;;;;;;8.86;70.66;100173.00;4412930;32;20108;-74
2021/04/09 02:54:57;;;;;;;4.10;0.73;;;;;;;8.85;69.72;100169.44;4415137;32;20066;-74
2021/04/09 02:57:25;;;;;;;5.82;1.02;;;;;;;8.86;69.07;100176.63;4412769;32;20132;-74
2021/04/09 02:59:52;;;;;;;5.37;0.93;;;;;;;8.70;68.28;100184.25;4410395;32;20831;-74
2021/04/09 03:02:20;;;;;;;5.40;0.93;;;;;;;8.67;68.74;100190.75;4408573;32;20061;-74
2021/04/09 03:04:46;;;;;;;6.75;1.00;;;;;;;8.81;68.21;100188.38;4413090;32;20108;-74
2021/04/09 03:07:12;;;;;;;5.28;0.77;;;;;;;8.85;68.55;100197.50;4413626;32;20039;-74
2021/04/09 03:09:38;;;;;;;6.05;0.90;;;;;;;8.87;70.23;100191.44;4412561;32;20125;-74
2021/04/09 03:12:20;;;;;;;7.68;1.30;;;;;;;8.94;70.43;100188.44;4412944;32;20069;-74
2021/04/09 03:14:48;;;;;;;3.50;1.00;;;;;;;8.74;70.97;100179.37;4413711;32;20038;-73
2021/04/09 03:17:19;;;;;;;5.20;1.00;;;;;;;8.70;70.88;100182.25;4414899;32;20073;-74
2021/04/09 03:19:44;;;;;;;6.78;1.00;;;;;;;8.73;71.32;100191.78;4413921;32;20412;-74
2021/04/09 03:22:11;;;;;;;6.28;1.10;;;;;;;8.70;71.41;100185.06;4414788;32;20062;-74
2021/04/09 03:24:38;;;;;;;7.18;1.12;;;;;;;8.70;71.71;100185.06;4413854;32;20351;-74
2021/04/09 03:27:08;;;;;;;6.95;1.37;;;;;;;8.65;72.35;100187.62;4416464;32;20034;-74
2021/04/09 03:29:34;;;;;;;8.35;0.98;;;;;;;8.67;71.58;100183.13;4410611;32;20092;-74
2021/04/09 03:32:01;;;;;;;8.32;1.27;;;;;;;8.65;71.05;100182.78;4412861;32;20086;-74
2021/04/09 03:34:26;;;;;;;7.18;1.08;;;;;;;8.59;71.33;100186.56;4414354;32;20126;-73
2021/04/09 03:36:52;;;;;;;6.80;1.05;;;;;;;8.44;71.18;100180.47;4413188;32;20069;-73
2021/04/09 03:39:18;;;;;;;4.62;1.33;;;;;;;8.35;71.83;100182.34;4412559;32;20090;-73
2021/04/09 03:41:45;;;;;;;8.38;1.20;;;;;;;8.26;72.74;100179.34;4412273;32;20065;-76
2021/04/09 03:44:11;;;;;;;9.02;1.35;;;;;;;8.31;72.52;100184.44;4415176;32;20096;-74
2021/04/09 03:46:36;;;;;;;4.97;1.30;;;;;;;8.18;72.43;100190.72;4413511;32;20037;-74
2021/04/09 03:49:03;;;;;;;7.60;1.10;;;;;;;8.25;72.93;100181.34;4414727;32;20714;-74
2021/04/09 03:51:30;;;;;;;5.00;1.00;;;;;;;8.16;73.10;100187.53;4411024;32;20074;-74
2021/04/09 03:53:57;;;;;;;8.30;1.20;;;;;;;8.16;74.06;100186.75;4412220;32;20062;-73
2021/04/09 03:56:23;;;;;;;7.93;1.87;;;;;;;8.22;74.14;100185.03;4413062;32;20115;-73
2021/04/09 03:58:50;;;;;;;4.50;1.23;;;;;;;8.18;73.24;100173.09;4413259;32;20144;-73
2021/04/09 04:01:17;;;;;;;9.70;1.30;;;;;;;8.17;72.81;100191.91;4412650;32;20068;-73
2021/04/09 04:03:43;;;;;;;4.07;0.90;;;;;;;8.07;73.63;100176.13;4413287;32;20753;-73
2021/04/09 04:06:08;;;;;;;7.35;1.42;;;;;;;7.83;70.95;100179.50;4414123;32;20026;-73
2021/04/09 04:08:35;;;;;;;3.08;1.00;;;;;;;7.71;69.13;100183.72;4411514;32;20101;-73
2021/04/09 04:11:01;;;;;;;7.10;1.00;;;;;;;7.54;69.81;100175.72;4413235;32;20092;-73
2021/04/09 04:13:26;;;;;;;3.50;0.70;;;;;;;7.41;69.12;100177.59;4414682;32;20042;-73
2021/04/09 04:15:52;;;;;;;8.55;1.10;;;;;;;7.22;69.21;100175.56;4412635;32;20489;-73
2021/04/09 04:18:18;;;;;;;6.18;1.42;;;;;;;7.17;69.25;100176.06;4411472;32;20092;-73
2021/04/09 04:20:44;;;;;;;10.18;1.40;;;;;;;7.12;67.34;100165.38;4410271;32;20072;-73
2021/04/09 04:23:10;;;;;;;9.73;1.85;;;;;;;7.13;66.55;100172.56;4412179;32;20083;-73
2021/04/09 04:25:35;;;;;;;8.77;1.40;;;;;;;7.17;66.54;100171.28;4410866;32;20034;-73
2021/04/09 04:28:01;;;;;;;8.35;1.95;;;;;;;7.25;64.86;100174.72;4411395;32;20309;-73
2021/04/09 04:30:27;;;;;;;13.45;1.67;;;;;;;7.25;65.62;100167.13;4413937;32;20042;-73
2021/04/09 04:32:53;;;;;;;16.33;1.98;;;;;;;7.25;67.15;100167.13;4414323;32;20042;-73
2021/04/09 04:35:18;;;;;;;13.98;1.65;;;;;;;7.28;66.45;100165.47;4414418;32;20080;-73
2021/04/09 04:37:44;;;;;;;7.53;1.83;;;;;;;7.29;66.12;100170.62;4412459;32;20616;-72
2021/04/09 04:40:10;;;;;;;8.40;1.50;;;;;;;7.30;66.32;100177.81;4411338;32;20047;-72
2021/04/09 04:42:36;;;;;;;9.50;1.20;;;;;;;7.37;66.41;100177.66;4413092;32;20529;-72
2021/04/09 04:45:03;;;;;;;11.65;1.40;;;;;;;7.39;65.73;100182.81;4413779;32;20049;-72
2021/04/09 04:47:29;;;;;;;16.33;1.62;;;;;;;7.39;66.10;100180.81;4413556;32;20057;-74
2021/04/09 04:49:55;;;;;;;16.58;2.00;;;;;;;7.48;65.64;100174.62;4413187;32;20122;-72
2021/04/09 04:52:21;;;;;;;10.80;1.35;;;;;;;7.55;65.59;100175.28;4409779;32;20026;-72
2021/04/09 04:54:47;;;;;;;6.12;0.80;;;;;;;7.55;65.34;100172.47;4411762;32;20151;-72
2021/04/09 04:57:12;;;;;;;8.27;1.40;;;;;;;7.52;66.21;100169.78;4410349;32;20115;-72
2021/04/09 04:59:38;;;;;;;14.70;2.28;;;;;;;7.52;66.03;100172.56;4410693;32;20073;-72
2021/04/09 05:02:04;;;;;;;5.40;1.23;;;;;;;7.54;67.15;100170.13;4411581;32;20064;-72
2021/04/09 05:04:30;;;;;;;13.60;1.77;;;;;;;7.62;65.98;100175.16;4408265;32;20026;-74
2021/04/09 05:06:56;;;;;;;4.72;1.33;;;;;;;7.71;66.13;100177.38;4412855;32;20092;-73
2021/04/09 05:09:22;;;;;;;10.68;1.67;;;;;;;7.68;67.16;100176.22;4408580;32;20030;-74
2021/04/09 05:11:47;;;;;;;15.48;1.87;;;;;;;7.71;67.49;100172.53;4415087;32;20187;-72
2021/04/09 05:14:13;;;;;;;14.65;3.20;;;;;;;7.69;66.25;100174.19;4414047;32;20046;-73
2021/04/09 05:16:38;;;;;;;8.50;2.03;;;;;;;7.81;65.28;100179.13;4413112;32;20088;-73
2021/04/09 05:19:04;;;;;;;12.95;1.83;;;;;;;7.75;66.01;100181.66;4408263;32;20504;-73
2021/04/09 05:21:30;;;;;;;14.48;2.00;;;;;;;7.80;66.19;100169.16;4414387;32;20078;-72
2021/04/09 05:23:55;;;;;;;17.70;2.42;;;;;;;7.82;66.37;100173.09;4410687;32;20096;-72
2021/04/09 05:26:21;;;;;;;12.30;1.95;;;;;;;7.83;66.39;100177.47;4411515;32;20035;-73
2021/04/09 05:28:46;;;;;;;11.65;2.55;;;;;;;7.91;66.15;100173.31;4411134;32;20079;-73
2021/04/09 05:31:12;;;;;;;16.58;2.25;;;;;;;7.99;66.52;100173.94;4411790;32;20097;-73
2021/04/09 05:33:37;;;;;;;7.57;2.00;;;;;;;8.02;64.92;100175.87;4411791;32;20426;-72
2021/04/09 05:36:03;;;;;;;12.70;2.53;;;;;;;8.07;64.85;100181.75;4412153;32;20127;-72
2021/04/09 05:38:29;;;;;;;9.55;3.03;;;;;;;8.05;65.19;100189.81;4410500;32;20101;-73
2021/04/09 05:40:55;;;;;;;17.42;1.90;;;;;;;8.00;65.53;100201.53;4413171;32;20088;-73
2021/04/09 05:43:20;;;;;;;12.73;1.80;;;;;;;7.98;65.92;100197.59;4410350;32;20061;-73
2021/04/09 05:45:46;;;;;;;8.73;1.58;;;;;;;8.01;65.98;100188.31;4412937;32;20064;-73
2021/04/09 05:48:12;;;;;;;11.25;1.87;;;;;;;8.12;65.56;100194.44;4412567;32;20429;-73
2021/04/09 05:50:38;;;;;;;9.63;1.58;;;;;;;8.11;65.14;100190.06;4412413;32;20117;-73
2021/04/09 05:53:03;;;;;;;9.68;1.58;;;;;;;8.06;65.06;100201.78;4411935;32;20254;-73
2021/04/09 05:55:29;;;;;;;17.62;1.98;;;;;;;8.13;64.42;100198.81;4411438;32;20014;-73
2021/04/09 05:57:55;;;;;;;18.92;2.17;;;;;;;8.11;64.71;100199.25;4412515;32;20122;-73
2021/04/09 06:00:22;;;;;;;15.38;2.17;;;;;;;8.05;63.99;100201.03;4412406;32;20034;-73
2021/04/09 06:02:48;;;;;;;11.38;1.70;;;;;;;8.12;64.81;100191.66;4411977;32;20041;-73
2021/04/09 06:05:14;;;;;;;12.65;1.90;;;;;;;8.11;64.46;100187.28;4411712;32;20069;-73
2021/04/09 06:07:40;;;;;;;13.43;1.90;;;;;;;8.17;64.32;100191.12;4409368;32;20473;-73
2021/04/09 06:10:07;;;;;;;13.65;2.33;;;;;;;8.15;64.86;100194.38;4410545;32;20060;-73
2021/04/09 06:12:37;;;;;;;10.93;2.15;;;;;;;8.09;64.94;100189.72;4410029;32;20065;-73
2021/04/09 06:15:06;;;;;;;16.95;2.42;;;;;;;8.11;64.97;100188.03;4409567;32;20092;-73
2021/04/09 06:17:31;;;;;;;15.27;2.53;;;;;;;7.98;65.15;100189.94;4415201;32;20022;-74
2021/04/09 06:19:58;;;;;;;12.60;2.20;;;;;;;8.07;64.41;100186.53;4412093;32;20022;-74
2021/04/09 06:22:24;;;;;;;9.43;1.92;;;;;;;8.05;65.19;100186.22;4414646;32;20074;-74
2021/04/09 06:24:49;;;;;;;12.68;2.37;;;;;;;7.96;65.53;100188.81;4411774;32;20165;-74
2021/04/09 06:27:15;;;;;;;15.63;2.50;;;;;;;8.02;64.74;100201.88;4413658;32;20481;-74
2021/04/09 06:29:41;;;;;;;10.82;2.15;;;;;;;8.12;64.80;100189.63;4412586;32;20337;-74
2021/04/09 06:32:07;;;;;;;20.27;2.90;;;;;;;8.11;64.80;100176.84;4411551;32;20065;-74
2021/04/09 06:34:34;;;;;;;15.65;3.05;;;;;;;8.35;64.09;100199.16;4413844;32;20441;-74
2021/04/09 06:37:00;;;;;;;14.65;3.08;;;;;;;8.51;64.31;100197.16;4415463;32;20396;-74
2021/04/09 06:39:25;;;;;;;12.02;2.28;;;;;;;8.57;64.01;100189.00;4414004;32;20082;-73
2021/04/09 06:41:52;;;;;;;17.48;2.80;;;;;;;8.68;63.14;100186.72;4415199;32;20265;-75
2021/04/09 06:44:18;;;;;;;20.48;2.87;;;;;;;8.65;61.83;100184.81;4409053;32;20081;-73
2021/04/09 06:46:44;;;;;;;14.85;4.20;;;;;;;8.73;63.01;100192.59;4415533;32;20034;-73
2021/04/09 06:49:11;;;;;;;11.27;2.78;;;;;;;8.72;62.19;100204.25;4412739;32;20216;-74
2021/04/09 06:51:38;;;;;;;13.35;2.15;;;;;;;8.82;62.30;100194.78;4414374;32;20041;-74
2021/04/09 06:54:06;;;;;;;15.52;2.62;;;;;;;8.88;61.87;100201.44;4413930;32;20563;-74
2021/04/09 06:56:34;;;;;;;11.20;2.33;;;;;;;8.99;62.33;100202.72;4413608;32;20482;-74
2021/04/09 06:58:59;;;;;;;18.05;2.95;;;;;;;9.17;62.04;100208.66;4413313;32;20103;-74
2021/04/09 07:01:26;;;;;;;17.37;2.28;;;;;;;9.17;61.18;100205.06;4410815;32;20164;-73
2021/04/09 07:03:55;;;;;;;15.30;3.53;;;;;;;9.17;60.82;100219.09;4412972;32;20058;-74
2021/04/09 07:06:21;;;;;;;18.37;2.92;;;;;;;9.21;60.79;100214.97;4415264;32;20386;-74
2021/04/09 07:08:46;;;;;;;14.15;2.33;;;;;;;9.09;60.44;100212.91;4414589;32;20446;-74
2021/04/09 07:11:12;;;;;;;14.98;3.92;;;;;;;9.13;60.97;100210.78;4413407;32;20122;-74
2021/04/09 07:13:53;;;;;;;15.60;2.85;;;;;;;8.91;61.78;100211.78;4413036;32;20130;-74
2021/04/09 07:16:20;;;;;;;16.33;2.65;;;;;;;9.00;62.00;100209.13;4414061;32;20030;-74
2021/04/09 07:18:50;;;;;;;11.70;2.10;;;;;;;9.03;61.65;100197.03;4415295;32;20135;-74
2021/04/09 07:24:18;;;;;;;17.27;2.87;;;;;;;9.33;61.04;100217.03;3990499;32;15023869;-74
2021/04/09 07:29:39;;;;;;;16.23;2.53;;;;;;;9.67;60.07;100219.31;3983718;32;15024922;-74
2021/04/09 07:35:06;;;;;;;12.37;2.20;;;;;;;10.13;58.60;100233.59;3989667;32;15024530;-74
2021/04/09 07:37:47;;;;;;;13.90;2.85;;;;;;;10.13;58.60;100233.59;4432878;32;20088;-74
2021/04/09 07:40:17;;;;;;;16.42;3.03;;;;;;;9.83;59.55;100228.47;4437376;32;20056;-74
2021/04/09 07:42:43;;;;;;;18.27;3.75;;;;;;;9.99;59.50;100234.03;4437156;32;20060;-74
2021/04/09 07:45:11;;;;;;;19.95;3.37;;;;;;;10.17;59.49;100232.72;4432619;32;20073;-75
2021/04/09 07:47:39;;;;;;;19.83;3.65;;;;;;;10.38;58.95;100230.03;4435290;32;20520;-75
2021/04/09 07:50:09;;;;;;;13.77;3.33;;;;;;;10.62;57.91;100227.69;4439180;32;20042;-74
2021/04/09 07:52:42;;;;;;;17.10;4.10;;;;;;;10.73;56.56;100231.72;4435938;32;20041;-74
2021/04/09 07:55:12;;;;;;;14.73;3.35;;;;;;;10.95;57.59;100229.00;4433345;32;20037;-74
2021/04/09 07:57:37;;;;;;;9.60;2.70;;;;;;;11.04;55.97;100232.66;4434258;32;20068;-75
2021/04/09 08:02:56;;;;;;;19.67;2.90;;;;;;;11.46;54.98;100244.50;4004485;31;15026902;-74
2021/04/09 08:05:24;;;;;;;24.20;3.60;;;;;;;11.46;54.98;100244.50;4468817;32;20153;-74
2021/04/09 08:07:51;;;;;;;23.23;3.10;;;;;;;10.97;55.44;100238.56;4465064;32;20073;-74
2021/04/09 08:10:18;;;;;;;17.42;3.17;;;;;;;10.78;56.42;100239.59;4467309;32;20334;-75
2021/04/09 08:12:52;;;;;;;28.12;4.37;;;;;;;10.76;55.94;100238.44;4466514;32;20088;-74
2021/04/09 08:20:42;;;;;;;23.33;3.05;;;;;;;11.05;55.85;100247.53;3987337;32;15023155;-74
2021/04/09 08:23:11;;;;;;;21.33;3.60;;;;;;;11.05;55.85;100247.53;4444203;32;20053;-74
2021/04/09 08:25:38;;;;;;;14.93;3.17;;;;;;;10.66;56.65;100250.84;4441182;32;20087;-74
2021/04/09 08:28:06;;;;;;;17.70;3.15;;;;;;;10.81;56.25;100246.34;4442119;32;20065;-74
2021/04/09 08:30:32;;;;;;;18.35;2.97;;;;;;;10.84;55.73;100251.88;4435641;32;20463;-74
2021/04/09 08:32:59;;;;;;;17.62;3.33;;;;;;;11.07;56.02;100247.88;4437172;32;20430;-74
2021/04/09 08:35:26;;;;;;;18.30;3.00;;;;;;;11.04;55.32;100245.94;4438971;32;20366;-74
2021/04/09 08:37:52;;;;;;;18.08;3.22;;;;;;;11.22;54.67;100246.94;4439465;32;20058;-74
2021/04/09 08:40:20;;;;;;;17.37;3.03;;;;;;;11.16;55.14;100245.13;4442020;32;20100;-74
2021/04/09 08:42:45;;;;;;;10.65;3.55;;;;;;;11.22;54.32;100246.94;4437731;32;20483;-74
2021/04/09 08:45:14;;;;;;;13.48;3.00;;;;;;;11.41;54.88;100245.06;4439819;32;20030;-74
2021/04/09 08:47:42;;;;;;;16.02;3.03;;;;;;;11.56;54.49;100243.31;4438412;32;20144;-73
2021/04/09 08:50:10;;;;;;;17.00;3.42;;;;;;;11.62;53.45;100247.16;4435275;32;20064;-74
2021/04/09 08:52:40;;;;;;;18.50;3.08;;;;;;;11.81;53.41;100235.56;4438723;32;20099;-74
2021/04/09 08:55:07;;;;;;;24.77;3.25;;;;;;;11.76;53.24;100238.97;4439801;32;20077;-74
2021/04/09 08:57:36;;;;;;;18.60;3.78;;;;;;;11.92;52.87;100252.09;4439222;32;20066;-75
2021/04/09 09:02:46;;;;;;;21.77;4.25;;;;;;;12.71;51.41;100263.50;3982900;32;15022566;-75
2021/04/09 09:05:15;;;;;;;17.60;4.10;;;;;;;12.71;51.41;100263.50;4429548;32;20075;-74
2021/04/09 09:13:24;;;;;;;19.15;3.08;;;;;;;13.06;49.57;100262.06;3985379;32;15025985;-74
2021/04/09 09:15:54;;;;;;;19.25;3.78;;;;;;;13.06;49.57;100262.06;4437566;32;20033;-75
2021/04/09 09:24:19;;;;;;;15.88;3.62;;;;;;;12.75;48.43;100269.78;3984230;32;15022937;-74
2021/04/09 09:26:47;;;;;;;24.63;4.18;;;;;;;12.75;48.43;100269.78;4435371;32;20102;-74
2021/04/09 09:45:09;;;;;;;16.65;3.67;;;;;;;12.98;47.83;100282.59;3985204;32;15025053;-74
2021/04/09 09:47:39;;;;;;;21.48;4.40;;;;;;;12.58;48.28;100264.84;4435657;32;20037;-75
2021/04/09 09:58:00;;;;;;;16.98;2.80;;;;;;;13.25;45.68;100274.97;3983393;32;15025859;-74
2021/04/09 10:00:30;;;;;;;17.85;3.40;;;;;;;13.25;45.68;100274.97;4442246;32;20041;-74
2021/04/09 10:03:13;;;;;;;13.75;2.87;;;;;;;13.33;45.34;100270.63;4431289;32;20296;-75
2021/04/09 10:05:41;;;;;;;19.73;3.20;;;;;;;13.53;45.14;100273.75;4433704;32;20039;-74
2021/04/09 10:08:07;;;;;;;17.60;3.45;;;;;;;13.75;45.01;100270.81;4433116;32;20092;-75
2021/04/09 10:10:37;;;;;;;20.77;4.00;;;;;;;14.23;44.70;100280.34;4432416;32;20080;-74
2021/04/09 10:13:24;;;;;;;17.95;3.05;;;;;;;14.49;43.07;100292.88;4437980;32;20096;-74
2021/04/09 10:15:55;;;;;;;19.12;2.72;;;;;;;14.48;42.18;100282.81;4431341;32;20151;-75
2021/04/09 10:18:21;;;;;;;15.80;3.00;;;;;;;14.33;42.83;100288.34;4429927;32;20095;-74
2021/04/09 10:20:50;;;;;;;22.10;4.65;;;;;;;14.70;42.51;100291.87;4428819;32;20086;-76
2021/04/09 10:23:21;;;;;;;28.30;7.93;;;;;;;14.69;42.82;100293.12;4432544;32;20047;-75
2021/04/09 10:25:51;;;;;;;15.57;3.47;;;;;;;15.02;42.33;100296.78;4436171;32;20045;-75
2021/04/09 10:28:16;;;;;;;16.37;3.60;;;;;;;15.16;41.42;100298.91;4432097;32;20060;-75
2021/04/09 10:30:42;;;;;;;14.85;2.95;;;;;;;15.15;40.84;100305.81;4434304;32;20073;-75
2021/04/09 10:33:08;;;;;;;18.52;2.80;;;;;;;15.52;39.43;100302.34;4436991;32;20041;-74
2021/04/09 10:35:35;;;;;;;13.93;2.50;;;;;;;15.38;39.33;100322.13;4434953;32;20067;-74
2021/04/09 10:38:11;;;;;;;19.50;2.58;;;;;;;15.17;39.20;100309.78;4435227;32;20146;-74
2021/04/09 10:40:54;;;;;;;13.93;2.70;;;;;;;15.22;40.24;100306.25;4436222;32;20052;-73
2021/04/09 10:43:36;;;;;;;21.87;3.40;;;;;;;15.10;39.43;100307.25;4431098;32;20046;-74
2021/04/09 10:48:42;;;;;;;11.70;2.80;;;;;;;14.56;39.84;100312.38;4002154;31;15015738;-74
2021/04/09 10:51:09;;;;;;;21.17;2.42;;;;;;;14.59;40.05;100308.56;4466045;32;20063;-74
2021/04/09 10:53:37;;;;;;;21.23;2.92;;;;;;;14.26;40.30;100297.19;4463824;32;20076;-76
2021/04/09 10:56:06;;;;;;;12.07;2.60;;;;;;;14.59;39.74;100302.91;4462371;32;20025;-75
2021/04/09 10:58:33;;;;;;;21.30;3.40;;;;;;;14.25;41.37;100292.78;4462155;32;20182;-74
2021/04/09 11:00:59;;;;;;;15.27;2.30;;;;;;;14.34;41.36;100304.09;4461193;32;20037;-74
2021/04/09 11:03:27;;;;;;;16.42;2.50;;;;;;;14.41;40.47;100306.59;4447995;32;20060;-74
2021/04/09 11:05:53;;;;;;;26.83;4.35;;;;;;;14.19;41.25;100293.84;4451148;32;20513;-74
2021/04/09 11:11:12;;;;;;;15.73;3.05;;;;;;;15.17;39.31;100303.31;3994505;31;15016275;-74
2021/04/09 11:13:40;;;;;;;17.25;3.60;;;;;;;15.17;39.31;100303.31;4450475;32;20109;-73
2021/04/09 11:16:09;;;;;;;17.80;3.78;;;;;;;15.10;40.30;100289.50;4452545;32;20048;-74
2021/04/09 11:21:51;;;;;;;13.48;3.75;;;;;;;15.59;39.18;100287.00;3985005;32;15025315;-75
2021/04/09 11:27:00;;;;;;;17.17;3.20;;;;;;;16.78;36.11;100283.34;3983722;32;15024169;-74
2021/04/09 11:32:06;;;;;;;16.67;3.78;;;;;;;16.68;36.37;100281.88;3987541;32;15025449;-75
2021/04/09 11:34:36;;;;;;;16.52;3.15;;;;;;;16.68;36.37;100281.88;4435124;32;20044;-74
2021/04/09 11:37:03;;;;;;;30.42;4.25;;;;;;;16.10;37.53;100281.84;4433432;32;20148;-73
2021/04/09 11:39:29;;;;;;;15.02;2.83;;;;;;;16.22;37.18;100286.47;4435605;32;20038;-73
2021/04/09 11:41:57;;;;;;;14.07;3.00;;;;;;;16.17;37.10;100278.59;4434922;32;20096;-75
2021/04/09 11:47:13;;;;;;;15.77;3.03;;;;;;;17.16;34.86;100273.84;3982631;32;15025481;-76
2021/04/09 11:49:40;;;;;;;14.70;2.80;;;;;;;17.16;34.86;100273.84;4430284;32;20048;-74
2021/04/09 11:52:06;;;;;;;24.17;4.00;;;;;;;16.88;35.35;100275.50;4433582;32;20033;-75
2021/04/09 11:54:36;;;;;;;13.50;2.72;;;;;;;16.84;35.36;100270.00;4435093;32;20025;-74
2021/04/09 11:57:03;;;;;;;9.98;2.60;;;;;;;16.87;35.21;100274.69;4435420;32;20069;-75
2021/04/09 11:59:34;;;;;;;15.48;2.95;;;;;;;17.05;34.35;100268.78;4431540;32;20017;-74
2021/04/09 12:02:22;;;;;;;21.05;3.10;;;;;;;17.12;34.86;100270.44;4419059;32;20307;-74
2021/04/09 12:04:49;;;;;;;18.17;3.40;;;;;;;17.23;35.09;100274.22;4416515;32;20062;-75
2021/04/09 12:09:55;;;;;;;12.77;2.85;;;;;;;17.77;34.57;100281.19;3980378;32;15166605;-74
2021/04/09 12:12:22;;;;;;;15.23;3.08;;;;;;;17.77;34.57;100281.19;4434777;32;20064;-75
2021/04/09 12:17:25;;;;;;;10.60;2.42;;;;;;;18.31;33.02;100273.75;3984759;32;15022120;-75
2021/04/09 12:19:54;;;;;;;8.68;2.37;;;;;;;17.94;32.93;100281.37;4439437;32;20040;-77
2021/04/09 12:22:20;;;;;;;12.77;2.40;;;;;;;17.43;34.17;100282.78;4437925;32;20136;-75
2021/04/09 12:24:46;;;;;;;12.68;3.25;;;;;;;17.20;34.79;100272.38;4441608;32;20096;-75
2021/04/09 12:27:11;;;;;;;10.70;2.40;;;;;;;16.97;35.40;100281.06;4439484;32;20034;-75
2021/04/09 12:29:38;;;;;;;17.08;3.17;;;;;;;16.22;36.62;100272.25;4439972;32;20160;-75
2021/04/09 12:32:05;;;;;;;9.55;2.92;;;;;;;15.99;37.90;100278.81;4439908;32;20068;-74
2021/04/09 12:34:30;;;;;;;4.25;1.23;;;;;;;15.56;38.41;100268.88;4439719;32;20149;-75
2021/04/09 12:36:56;;;;;;;3.78;0.70;;;;;;;15.08;37.53;100275.00;4439522;32;20389;-75
2021/04/09 12:39:23;;;;;;;2.85;0.70;;;;;;;14.92;35.59;100269.75;4439363;32;20079;-75
2021/04/09 12:41:49;;;;;;;3.10;1.12;;;;;;;14.76;35.67;100272.97;4438534;32;20072;-75
2021/04/09 12:44:16;;;;;;;5.03;1.00;;;;;;;14.76;36.83;100284.31;4440737;32;20094;-75
2021/04/09 12:46:44;;;;;;;4.25;0.85;;;;;;;14.38;38.34;100281.25;4438495;32;20042;-75
2021/04/09 12:49:10;;;;;;;3.03;0.98;;;;;;;14.20;40.82;100281.28;4438491;32;20061;-74